sensor_id;sensor_type;location;lat;lon;timestamp;temperature;humidity
19654;DHT22;9975;48.046;7.804;2023-02-05T02:47:41;-0.50;99.90
19654;DHT22;9975;48.046;7.804;2023-02-05T02:50:14;-0.50;99.90
19654;DHT22;9975;48.046;7.804;2023-02-05T02:52:44;1.90;99.90
19654;DHT22;9975;48.046;7.804;2023-02-05T02:55:12;-0.50;99.90
19654;DHT22;9975;48.046;7.804;2023-02-05T02:57:40;-0.60;99.90
19654;DHT22;9975;48.046;7.804;2023-02-05T03:00:23;-0.60;99.90
19654;DHT22;9975;48.046;7.804;2023-02-05T03:02:53;-0.60;99.90
19654;DHT22;9975;48.046;7.804;2023-02-05T03:05:22;-0.60;99.90
19654;DHT22;9975;48.046;7.804;2023-02-05T03:07:55;-0.70;99.90
19654;DHT22;9975;48.046;7.804;2023-02-05T03:10:41;-0.60;99.90
19654;DHT22;9975;48.046;7.804;2023-02-05T03:13:09;-0.80;99.90
19654;DHT22;9975;48.046;7.804;2023-02-05T03:15:36;-0.60;99.90
19654;DHT22;9975;48.046;7.804;2023-02-05T03:18:03;-0.80;99.90
19654;DHT22;9975;48.046;7.804;2023-02-05T03:20:32;-0.80;99.90
19654;DHT22;9975;48.046;7.804;2023-02-05T03:22:59;-0.90;99.90
19654;DHT22;9975;48.046;7.804;2023-02-05T03:25:26;-1.00;99.90
19654;DHT22;9975;48.046;7.804;2023-02-05T03:27:53;-0.90;99.90
19654;DHT22;9975;48.046;7.804;2023-02-05T03:30:20;-0.90;99.90
19654;DHT22;9975;48.046;7.804;2023-02-05T03:36:07;-0.90;99.90
19654;DHT22;9975;48.046;7.804;2023-02-05T03:41:51;-0.90;99.90
19654;DHT22;9975;48.046;7.804;2023-02-05T03:44:26;-0.70;99.90
19654;DHT22;9975;48.046;7.804;2023-02-05T03:47:26;-0.70;99.90
19654;DHT22;9975;48.046;7.804;2023-02-05T03:52:32;-0.70;99.90
19654;DHT22;9975;48.046;7.804;2023-02-05T03:55:20;-0.60;99.90
19654;DHT22;9975;48.046;7.804;2023-02-05T03:57:57;-0.60;99.90
19654;DHT22;9975;48.046;7.804;2023-02-05T04:00:24;-0.60;99.90
19654;DHT22;9975;48.046;7.804;2023-02-05T04:02:50;-0.60;99.90
19654;DHT22;9975;48.046;7.804;2023-02-05T04:07:43;-0.60;99.90
19654;DHT22;9975;48.046;7.804;2023-02-05T04:10:09;-0.70;99.90
19654;DHT22;9975;48.046;7.804;2023-02-05T04:12:34;-0.70;99.90
19654;DHT22;9975;48.046;7.804;2023-02-05T04:15:00;-0.70;99.90
19654;DHT22;9975;48.046;7.804;2023-02-05T04:17:25;-0.60;99.90
19654;DHT22;9975;48.046;7.804;2023-02-05T04:19:51;-0.40;99.90
19654;DHT22;9975;48.046;7.804;2023-02-05T04:22:17;-0.50;99.90
19654;DHT22;9975;48.046;7.804;2023-02-05T04:24:42;-0.50;99.90
19654;DHT22;9975;48.046;7.804;2023-02-05T04:27:09;-0.30;99.90
19654;DHT22;9975;48.046;7.804;2023-02-05T04:29:35;-0.40;99.90
19654;DHT22;9975;48.046;7.804;2023-02-05T04:32:00;-0.40;99.90
19654;DHT22;9975;48.046;7.804;2023-02-05T04:34:26;-0.40;99.90
19654;DHT22;9975;48.046;7.804;2023-02-05T04:36:51;-0.30;99.90
19654;DHT22;9975;48.046;7.804;2023-02-05T04:39:17;0.80;99.90
19654;DHT22;9975;48.046;7.804;2023-02-05T04:41:43;-0.20;99.90
19654;DHT22;9975;48.046;7.804;2023-02-05T04:44:08;-0.20;99.90
19654;DHT22;9975;48.046;7.804;2023-02-05T04:46:34;-0.10;99.90
19654;DHT22;9975;48.046;7.804;2023-02-05T04:49:00;-0.10;99.90
19654;DHT22;9975;48.046;7.804;2023-02-05T04:51:25;0.20;99.90
19654;DHT22;9975;48.046;7.804;2023-02-05T04:53:51;0.10;99.90
19654;DHT22;9975;48.046;7.804;2023-02-05T04:56:17;0.20;99.90
19654;DHT22;9975;48.046;7.804;2023-02-05T04:58:43;0.10;99.90
19654;DHT22;9975;48.046;7.804;2023-02-05T05:01:15;0.10;99.90
19654;DHT22;9975;48.046;7.804;2023-02-05T05:03:41;0.10;99.90
19654;DHT22;9975;48.046;7.804;2023-02-05T05:06:07;0.10;99.90
19654;DHT22;9975;48.046;7.804;2023-02-05T05:08:33;0.10;99.90
19654;DHT22;9975;48.046;7.804;2023-02-05T05:10:59;1.00;99.90
19654;DHT22;9975;48.046;7.804;2023-02-05T05:15:55;0.20;99.90
19654;DHT22;9975;48.046;7.804;2023-02-05T05:18:21;0.20;99.90
19654;DHT22;9975;48.046;7.804;2023-02-05T05:20:47;0.30;99.90
19654;DHT22;9975;48.046;7.804;2023-02-05T05:23:12;1.30;99.90
19654;DHT22;9975;48.046;7.804;2023-02-05T05:25:42;0.30;99.90
19654;DHT22;9975;48.046;7.804;2023-02-05T05:28:09;0.20;99.90
19654;DHT22;9975;48.046;7.804;2023-02-05T05:30:37;2.90;99.90
19654;DHT22;9975;48.046;7.804;2023-02-05T05:33:03;0.30;99.90
19654;DHT22;9975;48.046;7.804;2023-02-05T05:35:28;0.50;99.90
19654;DHT22;9975;48.046;7.804;2023-02-05T05:37:58;0.50;99.90
19654;DHT22;9975;48.046;7.804;2023-02-05T05:40:24;0.50;99.90
19654;DHT22;9975;48.046;7.804;2023-02-05T05:43:11;0.60;99.90
19654;DHT22;9975;48.046;7.804;2023-02-05T05:45:55;0.40;99.90
19654;DHT22;9975;48.046;7.804;2023-02-05T05:48:21;0.30;99.90
19654;DHT22;9975;48.046;7.804;2023-02-05T05:50:46;0.30;99.90
19654;DHT22;9975;48.046;7.804;2023-02-05T05:53:12;0.40;99.90
19654;DHT22;9975;48.046;7.804;2023-02-05T05:55:37;0.50;99.90
19654;DHT22;9975;48.046;7.804;2023-02-05T05:58:03;0.50;99.90
19654;DHT22;9975;48.046;7.804;2023-02-05T06:00:29;0.50;99.90
19654;DHT22;9975;48.046;7.804;2023-02-05T06:05:21;0.50;99.90
19654;DHT22;9975;48.046;7.804;2023-02-05T06:07:46;0.50;99.90
19654;DHT22;9975;48.046;7.804;2023-02-05T06:10:12;0.60;99.90
19654;DHT22;9975;48.046;7.804;2023-02-05T06:15:04;0.60;99.90
19654;DHT22;9975;48.046;7.804;2023-02-05T06:17:30;0.50;99.90
19654;DHT22;9975;48.046;7.804;2023-02-05T06:19:56;0.50;99.90
19654;DHT22;9975;48.046;7.804;2023-02-05T06:22:21;1.30;99.90
19654;DHT22;9975;48.046;7.804;2023-02-05T06:27:13;0.50;99.90
19654;DHT22;9975;48.046;7.804;2023-02-05T06:29:39;0.60;99.90
19654;DHT22;9975;48.046;7.804;2023-02-05T06:32:04;0.70;99.90
19654;DHT22;9975;48.046;7.804;2023-02-05T06:34:30;0.70;99.90
19654;DHT22;9975;48.046;7.804;2023-02-05T06:36:55;0.70;99.90
19654;DHT22;9975;48.046;7.804;2023-02-05T06:39:21;0.80;99.90
19654;DHT22;9975;48.046;7.804;2023-02-05T06:44:13;0.80;99.90
19654;DHT22;9975;48.046;7.804;2023-02-05T06:46:39;0.80;99.90
19654;DHT22;9975;48.046;7.804;2023-02-05T06:49:04;0.90;99.90
19654;DHT22;9975;48.046;7.804;2023-02-05T06:51:30;0.90;99.90
19654;DHT22;9975;48.046;7.804;2023-02-05T06:56:22;0.80;99.90
19654;DHT22;9975;48.046;7.804;2023-02-05T06:58:48;1.00;99.90
19654;DHT22;9975;48.046;7.804;2023-02-05T07:04:16;1.00;99.90
19654;DHT22;9975;48.046;7.804;2023-02-05T07:06:41;1.00;99.90
19654;DHT22;9975;48.046;7.804;2023-02-05T07:11:33;1.00;99.90
19654;DHT22;9975;48.046;7.804;2023-02-05T07:14:02;1.00;99.90
19654;DHT22;9975;48.046;7.804;2023-02-05T07:16:29;0.90;99.90
19654;DHT22;9975;48.046;7.804;2023-02-05T07:18:59;0.90;99.90
19654;DHT22;9975;48.046;7.804;2023-02-05T07:21:24;1.00;99.90
19654;DHT22;9975;48.046;7.804;2023-02-05T07:23:50;1.00;99.90
19654;DHT22;9975;48.046;7.804;2023-02-05T07:26:16;1.10;99.90
19654;DHT22;9975;48.046;7.804;2023-02-05T07:28:42;1.20;99.90
19654;DHT22;9975;48.046;7.804;2023-02-05T07:31:13;1.20;99.90
19654;DHT22;9975;48.046;7.804;2023-02-05T07:33:41;1.10;99.90
19654;DHT22;9975;48.046;7.804;2023-02-05T07:36:08;1.20;99.90
19654;DHT22;9975;48.046;7.804;2023-02-05T07:38:34;1.30;99.90
19654;DHT22;9975;48.046;7.804;2023-02-05T07:41:09;1.30;99.90
19654;DHT22;9975;48.046;7.804;2023-02-05T07:46:03;1.30;99.90
19654;DHT22;9975;48.046;7.804;2023-02-05T07:48:31;1.30;99.90
19654;DHT22;9975;48.046;7.804;2023-02-05T07:50:56;1.30;99.90
19654;DHT22;9975;48.046;7.804;2023-02-05T07:53:22;1.20;99.90
19654;DHT22;9975;48.046;7.804;2023-02-05T07:55:48;1.20;99.90
19654;DHT22;9975;48.046;7.804;2023-02-05T07:58:14;1.20;99.90
19654;DHT22;9975;48.046;7.804;2023-02-05T08:00:40;1.40;99.90
19654;DHT22;9975;48.046;7.804;2023-02-05T08:03:06;1.40;99.90
19654;DHT22;9975;48.046;7.804;2023-02-05T08:05:32;1.40;99.90
19654;DHT22;9975;48.046;7.804;2023-02-05T08:10:23;1.40;99.90
19654;DHT22;9975;48.046;7.804;2023-02-05T08:12:49;1.50;99.90
19654;DHT22;9975;48.046;7.804;2023-02-05T08:15:14;1.50;99.90
19654;DHT22;9975;48.046;7.804;2023-02-05T08:17:40;1.70;99.90
19654;DHT22;9975;48.046;7.804;2023-02-05T08:20:06;1.70;99.90
19654;DHT22;9975;48.046;7.804;2023-02-05T08:22:37;1.70;99.90
19654;DHT22;9975;48.046;7.804;2023-02-05T08:25:07;1.70;99.90
19654;DHT22;9975;48.046;7.804;2023-02-05T08:27:35;1.80;99.90
19654;DHT22;9975;48.046;7.804;2023-02-05T08:30:02;1.90;99.90
19654;DHT22;9975;48.046;7.804;2023-02-05T08:32:28;1.90;99.90
19654;DHT22;9975;48.046;7.804;2023-02-05T08:34:53;1.90;99.90
19654;DHT22;9975;48.046;7.804;2023-02-05T08:37:19;1.90;99.90
19654;DHT22;9975;48.046;7.804;2023-02-05T08:39:44;2.00;99.90
19654;DHT22;9975;48.046;7.804;2023-02-05T08:42:11;2.10;99.90
19654;DHT22;9975;48.046;7.804;2023-02-05T08:47:02;2.10;99.90
19654;DHT22;9975;48.046;7.804;2023-02-05T08:51:54;2.00;99.90
19654;DHT22;9975;48.046;7.804;2023-02-05T08:54:20;2.10;99.90
19654;DHT22;9975;48.046;7.804;2023-02-05T08:56:48;2.10;99.90
19654;DHT22;9975;48.046;7.804;2023-02-05T08:59:14;2.10;99.90
19654;DHT22;9975;48.046;7.804;2023-02-05T09:01:41;2.20;99.90
19654;DHT22;9975;48.046;7.804;2023-02-05T09:04:10;2.10;99.90
19654;DHT22;9975;48.046;7.804;2023-02-05T09:06:36;2.40;99.90
19654;DHT22;9975;48.046;7.804;2023-02-05T09:09:02;2.40;99.90
19654;DHT22;9975;48.046;7.804;2023-02-05T09:11:28;2.40;99.90
19654;DHT22;9975;48.046;7.804;2023-02-05T09:13:58;2.60;99.90
19654;DHT22;9975;48.046;7.804;2023-02-05T09:16:24;2.50;99.90
19654;DHT22;9975;48.046;7.804;2023-02-05T09:18:53;2.50;99.90
19654;DHT22;9975;48.046;7.804;2023-02-05T09:23:44;2.80;99.90
19654;DHT22;9975;48.046;7.804;2023-02-05T09:28:37;2.80;99.90
19654;DHT22;9975;48.046;7.804;2023-02-05T09:31:11;2.90;99.90
19654;DHT22;9975;48.046;7.804;2023-02-05T09:33:37;3.00;99.90
19654;DHT22;9975;48.046;7.804;2023-02-05T09:36:15;2.90;99.90
19654;DHT22;9975;48.046;7.804;2023-02-05T09:38:41;3.00;99.90
19654;DHT22;9975;48.046;7.804;2023-02-05T09:41:16;2.90;99.90
19654;DHT22;9975;48.046;7.804;2023-02-05T09:44:04;2.90;99.90
19654;DHT22;9975;48.046;7.804;2023-02-05T09:49:40;3.00;99.90
19654;DHT22;9975;48.046;7.804;2023-02-05T09:52:09;3.10;99.90
19654;DHT22;9975;48.046;7.804;2023-02-05T09:54:41;3.20;99.90
19654;DHT22;9975;48.046;7.804;2023-02-05T09:57:12;3.10;99.90
19654;DHT22;9975;48.046;7.804;2023-02-05T09:59:42;3.20;99.90
19654;DHT22;9975;48.046;7.804;2023-02-05T10:02:30;3.10;99.90
19654;DHT22;9975;48.046;7.804;2023-02-05T10:05:00;3.20;99.90
19654;DHT22;9975;48.046;7.804;2023-02-05T10:10:23;3.40;99.90
19654;DHT22;9975;48.046;7.804;2023-02-05T10:16:09;3.50;99.90
19654;DHT22;9975;48.046;7.804;2023-02-05T10:30:07;3.40;99.90
19654;DHT22;9975;48.046;7.804;2023-02-05T10:37:56;3.50;99.90
19654;DHT22;9975;48.046;7.804;2023-02-05T10:40:28;3.80;99.90
19654;DHT22;9975;48.046;7.804;2023-02-05T10:43:24;3.70;99.90
19654;DHT22;9975;48.046;7.804;2023-02-05T10:45:52;3.80;99.90
19654;DHT22;9975;48.046;7.804;2023-02-05T10:48:34;3.80;99.90
19654;DHT22;9975;48.046;7.804;2023-02-05T10:51:06;3.80;99.90
19654;DHT22;9975;48.046;7.804;2023-02-05T10:56:02;3.80;99.90
19654;DHT22;9975;48.046;7.804;2023-02-05T11:04:00;3.80;99.90
19654;DHT22;9975;48.046;7.804;2023-02-05T11:06:31;3.80;99.90
19654;DHT22;9975;48.046;7.804;2023-02-05T11:13:59;3.80;99.90
19654;DHT22;9975;48.046;7.804;2023-02-05T11:16:43;4.00;99.90
19654;DHT22;9975;48.046;7.804;2023-02-05T11:19:28;3.80;99.90
19654;DHT22;9975;48.046;7.804;2023-02-05T11:21:56;3.90;99.90
19654;DHT22;9975;48.046;7.804;2023-02-05T11:24:33;4.00;99.90
19654;DHT22;9975;48.046;7.804;2023-02-05T11:29:44;4.00;99.90
19654;DHT22;9975;48.046;7.804;2023-02-05T11:32:19;4.00;99.90
19654;DHT22;9975;48.046;7.804;2023-02-05T11:34:47;4.00;99.90
19654;DHT22;9975;48.046;7.804;2023-02-05T11:37:17;4.00;99.90
19654;DHT22;9975;48.046;7.804;2023-02-05T11:39:44;4.00;99.90
19654;DHT22;9975;48.046;7.804;2023-02-05T11:42:22;4.00;99.90
19654;DHT22;9975;48.046;7.804;2023-02-05T11:44:55;4.00;99.90
19654;DHT22;9975;48.046;7.804;2023-02-05T11:47:27;4.00;99.90
19654;DHT22;9975;48.046;7.804;2023-02-05T11:49:54;4.20;99.90
19654;DHT22;9975;48.046;7.804;2023-02-05T11:52:29;4.20;99.90
19654;DHT22;9975;48.046;7.804;2023-02-05T11:54:57;4.20;99.90
19654;DHT22;9975;48.046;7.804;2023-02-05T11:57:33;4.20;99.90
19654;DHT22;9975;48.046;7.804;2023-02-05T12:07:42;5.40;99.90
19654;DHT22;9975;48.046;7.804;2023-02-05T12:10:18;4.30;99.90
19654;DHT22;9975;48.046;7.804;2023-02-05T12:12:59;4.40;99.90
19654;DHT22;9975;48.046;7.804;2023-02-05T12:15:33;4.40;99.90
19654;DHT22;9975;48.046;7.804;2023-02-05T12:20:39;4.50;99.90
19654;DHT22;9975;48.046;7.804;2023-02-05T12:26:17;4.60;99.90
19654;DHT22;9975;48.046;7.804;2023-02-05T12:31:55;4.80;99.90
19654;DHT22;9975;48.046;7.804;2023-02-05T12:34:29;4.90;99.90
19654;DHT22;9975;48.046;7.804;2023-02-05T12:45:15;5.00;99.90
19654;DHT22;9975;48.046;7.804;2023-02-05T12:58:57;5.00;99.90
19654;DHT22;9975;48.046;7.804;2023-02-05T13:01:43;4.80;99.90
19654;DHT22;9975;48.046;7.804;2023-02-05T13:04:26;4.90;99.90
19654;DHT22;9975;48.046;7.804;2023-02-05T13:07:01;4.80;99.90
19654;DHT22;9975;48.046;7.804;2023-02-05T13:09:52;4.90;99.90
19654;DHT22;9975;48.046;7.804;2023-02-05T13:12:22;4.90;99.90
19654;DHT22;9975;48.046;7.804;2023-02-05T13:15:14;5.00;99.90
19654;DHT22;9975;48.046;7.804;2023-02-05T13:17:57;5.00;99.90
19654;DHT22;9975;48.046;7.804;2023-02-05T13:20:45;4.90;99.90
19654;DHT22;9975;48.046;7.804;2023-02-05T13:23:33;5.00;99.90
19654;DHT22;9975;48.046;7.804;2023-02-05T13:26:33;5.00;99.90
19654;DHT22;9975;48.046;7.804;2023-02-05T13:29:20;5.00;99.90
19654;DHT22;9975;48.046;7.804;2023-02-05T13:32:05;4.90;99.90
19654;DHT22;9975;48.046;7.804;2023-02-05T13:34:35;5.00;99.90
19654;DHT22;9975;48.046;7.804;2023-02-05T13:52:59;5.20;99.90
19654;DHT22;9975;48.046;7.804;2023-02-05T13:56:02;5.20;99.90
19654;DHT22;9975;48.046;7.804;2023-02-05T13:58:47;5.10;99.90
19654;DHT22;9975;48.046;7.804;2023-02-05T14:01:21;5.10;99.90
19654;DHT22;9975;48.046;7.804;2023-02-05T14:04:01;5.10;99.90
19654;DHT22;9975;48.046;7.804;2023-02-05T14:09:06;5.10;99.90
19654;DHT22;9975;48.046;7.804;2023-02-05T14:11:56;5.10;99.90
19654;DHT22;9975;48.046;7.804;2023-02-05T14:16:58;5.00;99.90
19654;DHT22;9975;48.046;7.804;2023-02-05T14:19:48;5.10;99.90
19654;DHT22;9975;48.046;7.804;2023-02-05T14:22:41;5.00;99.90
19654;DHT22;9975;48.046;7.804;2023-02-05T14:30:58;5.20;99.90
19654;DHT22;9975;48.046;7.804;2023-02-05T14:33:34;5.10;99.90
19654;DHT22;9975;48.046;7.804;2023-02-05T14:39:05;5.40;99.90
19654;DHT22;9975;48.046;7.804;2023-02-05T14:46:37;5.20;99.90
19654;DHT22;9975;48.046;7.804;2023-02-05T14:57:19;5.10;99.90
19654;DHT22;9975;48.046;7.804;2023-02-05T14:59:53;5.10;99.90
19654;DHT22;9975;48.046;7.804;2023-02-05T15:02:55;5.00;99.90
19654;DHT22;9975;48.046;7.804;2023-02-05T15:05:49;4.90;99.90
19654;DHT22;9975;48.046;7.804;2023-02-05T15:13:41;4.90;99.90
19654;DHT22;9975;48.046;7.804;2023-02-05T15:18:53;5.00;99.90
19654;DHT22;9975;48.046;7.804;2023-02-05T15:21:36;4.90;99.90
19654;DHT22;9975;48.046;7.804;2023-02-05T15:26:40;5.20;99.90
19654;DHT22;9975;48.046;7.804;2023-02-05T15:32:16;5.20;99.90
19654;DHT22;9975;48.046;7.804;2023-02-05T15:37:49;5.00;99.90
19654;DHT22;9975;48.046;7.804;2023-02-05T15:40:23;5.30;99.90
19654;DHT22;9975;48.046;7.804;2023-02-05T15:42:53;5.20;99.90
19654;DHT22;9975;48.046;7.804;2023-02-05T15:45:32;5.20;99.90
19654;DHT22;9975;48.046;7.804;2023-02-05T15:48:35;5.00;99.90
19654;DHT22;9975;48.046;7.804;2023-02-05T15:51:12;4.90;99.90
19654;DHT22;9975;48.046;7.804;2023-02-05T15:53:49;4.90;99.90
19654;DHT22;9975;48.046;7.804;2023-02-05T15:58:49;4.90;99.90
19654;DHT22;9975;48.046;7.804;2023-02-05T16:01:28;4.80;99.90
19654;DHT22;9975;48.046;7.804;2023-02-05T16:09:34;4.90;99.90
19654;DHT22;9975;48.046;7.804;2023-02-05T16:12:10;4.90;99.90
19654;DHT22;9975;48.046;7.804;2023-02-05T16:14:36;5.00;99.90
19654;DHT22;9975;48.046;7.804;2023-02-05T16:19:48;5.00;99.90
19654;DHT22;9975;48.046;7.804;2023-02-05T16:24:47;5.10;99.90
19654;DHT22;9975;48.046;7.804;2023-02-05T16:29:56;5.00;99.90
19654;DHT22;9975;48.046;7.804;2023-02-05T16:32:32;5.10;99.90
19654;DHT22;9975;48.046;7.804;2023-02-05T16:35:03;5.10;99.90
19654;DHT22;9975;48.046;7.804;2023-02-05T16:37:30;4.90;99.90
19654;DHT22;9975;48.046;7.804;2023-02-05T16:39:57;5.00;99.90
19654;DHT22;9975;48.046;7.804;2023-02-05T16:42:42;5.10;99.90
19654;DHT22;9975;48.046;7.804;2023-02-05T16:45:21;5.10;99.90
19654;DHT22;9975;48.046;7.804;2023-02-05T16:48:22;5.10;99.90
19654;DHT22;9975;48.046;7.804;2023-02-05T16:50:50;5.10;99.90
19654;DHT22;9975;48.046;7.804;2023-02-05T16:53:22;5.00;99.90
19654;DHT22;9975;48.046;7.804;2023-02-05T16:55:49;5.00;99.90
19654;DHT22;9975;48.046;7.804;2023-02-05T16:58:21;5.00;99.90
19654;DHT22;9975;48.046;7.804;2023-02-05T17:00:53;5.00;99.90
19654;DHT22;9975;48.046;7.804;2023-02-05T17:03:19;6.20;99.90
19654;DHT22;9975;48.046;7.804;2023-02-05T17:05:53;5.00;99.90
19654;DHT22;9975;48.046;7.804;2023-02-05T17:08:26;5.00;99.90
19654;DHT22;9975;48.046;7.804;2023-02-05T17:10:58;5.00;99.90
19654;DHT22;9975;48.046;7.804;2023-02-05T17:13:38;5.00;99.90
19654;DHT22;9975;48.046;7.804;2023-02-05T17:16:30;5.10;99.90
19654;DHT22;9975;48.046;7.804;2023-02-05T17:19:02;5.10;99.90
19654;DHT22;9975;48.046;7.804;2023-02-05T17:23:56;5.00;99.90
19654;DHT22;9975;48.046;7.804;2023-02-05T17:26:25;5.00;99.90
19654;DHT22;9975;48.046;7.804;2023-02-05T17:29:00;5.10;99.90
19654;DHT22;9975;48.046;7.804;2023-02-05T17:31:37;5.00;99.90
19654;DHT22;9975;48.046;7.804;2023-02-05T17:34:04;5.00;99.90
19654;DHT22;9975;48.046;7.804;2023-02-05T17:36:30;5.00;99.90
19654;DHT22;9975;48.046;7.804;2023-02-05T17:38:56;5.00;99.90
19654;DHT22;9975;48.046;7.804;2023-02-05T17:41:24;5.00;99.90
19654;DHT22;9975;48.046;7.804;2023-02-05T17:44:13;4.90;99.90
19654;DHT22;9975;48.046;7.804;2023-02-05T17:46:47;4.90;99.90
19654;DHT22;9975;48.046;7.804;2023-02-05T17:49:12;5.00;99.90
19654;DHT22;9975;48.046;7.804;2023-02-05T17:51:38;5.10;99.90
19654;DHT22;9975;48.046;7.804;2023-02-05T17:54:14;5.10;99.90
19654;DHT22;9975;48.046;7.804;2023-02-05T17:56:40;5.00;99.90
19654;DHT22;9975;48.046;7.804;2023-02-05T17:59:17;5.00;99.90
19654;DHT22;9975;48.046;7.804;2023-02-05T18:01:44;5.00;99.90
19654;DHT22;9975;48.046;7.804;2023-02-05T18:04:10;4.90;99.90
19654;DHT22;9975;48.046;7.804;2023-02-05T18:06:36;4.90;99.90
19654;DHT22;9975;48.046;7.804;2023-02-05T18:09:03;5.00;99.90
19654;DHT22;9975;48.046;7.804;2023-02-05T18:11:28;4.90;99.90
19654;DHT22;9975;48.046;7.804;2023-02-05T18:16:20;4.80;99.90
19654;DHT22;9975;48.046;7.804;2023-02-05T18:18:46;4.80;99.90
19654;DHT22;9975;48.046;7.804;2023-02-05T18:21:28;4.80;99.90
19654;DHT22;9975;48.046;7.804;2023-02-05T18:23:53;4.90;99.90
19654;DHT22;9975;48.046;7.804;2023-02-05T18:28:45;4.70;99.90
19654;DHT22;9975;48.046;7.804;2023-02-05T18:31:12;4.70;99.90
19654;DHT22;9975;48.046;7.804;2023-02-05T18:33:38;4.90;99.90
19654;DHT22;9975;48.046;7.804;2023-02-05T18:36:10;4.80;99.90
19654;DHT22;9975;48.046;7.804;2023-02-05T18:38:37;4.80;99.90
19654;DHT22;9975;48.046;7.804;2023-02-05T18:41:10;4.80;99.90
19654;DHT22;9975;48.046;7.804;2023-02-05T18:43:36;4.90;99.90
19654;DHT22;9975;48.046;7.804;2023-02-05T18:46:13;4.80;99.90
19654;DHT22;9975;48.046;7.804;2023-02-05T18:48:39;4.70;99.90
19654;DHT22;9975;48.046;7.804;2023-02-05T18:51:10;4.60;99.90
19654;DHT22;9975;48.046;7.804;2023-02-05T18:53:38;4.80;99.90
19654;DHT22;9975;48.046;7.804;2023-02-05T18:56:08;4.70;99.90
19654;DHT22;9975;48.046;7.804;2023-02-05T18:58:37;4.70;99.90
19654;DHT22;9975;48.046;7.804;2023-02-05T19:01:11;4.70;99.90
19654;DHT22;9975;48.046;7.804;2023-02-05T19:03:36;4.70;99.90
19654;DHT22;9975;48.046;7.804;2023-02-05T19:06:04;4.70;99.90
19654;DHT22;9975;48.046;7.804;2023-02-05T19:20:42;4.70;99.90
19654;DHT22;9975;48.046;7.804;2023-02-05T19:23:40;4.60;99.90
19654;DHT22;9975;48.046;7.804;2023-02-05T19:26:17;4.80;99.90
19654;DHT22;9975;48.046;7.804;2023-02-05T19:28:44;4.70;99.90
19654;DHT22;9975;48.046;7.804;2023-02-05T19:31:12;4.80;99.90
19654;DHT22;9975;48.046;7.804;2023-02-05T19:33:39;4.70;99.90
19654;DHT22;9975;48.046;7.804;2023-02-05T19:36:07;4.70;99.90
19654;DHT22;9975;48.046;7.804;2023-02-05T19:38:34;4.70;99.90
19654;DHT22;9975;48.046;7.804;2023-02-05T19:41:05;4.70;99.90
19654;DHT22;9975;48.046;7.804;2023-02-05T19:43:31;4.70;99.90
19654;DHT22;9975;48.046;7.804;2023-02-05T19:46:04;4.80;99.90
19654;DHT22;9975;48.046;7.804;2023-02-05T19:48:30;4.80;99.90
19654;DHT22;9975;48.046;7.804;2023-02-05T19:51:02;4.70;99.90
19654;DHT22;9975;48.046;7.804;2023-02-05T19:53:28;4.70;99.90
19654;DHT22;9975;48.046;7.804;2023-02-05T19:56:00;4.70;99.90
19654;DHT22;9975;48.046;7.804;2023-02-05T19:58:30;4.80;99.90
19654;DHT22;9975;48.046;7.804;2023-02-05T20:00:55;4.80;99.90
19654;DHT22;9975;48.046;7.804;2023-02-05T20:05:47;4.80;99.90
19654;DHT22;9975;48.046;7.804;2023-02-05T20:08:13;4.80;99.90
19654;DHT22;9975;48.046;7.804;2023-02-05T20:10:38;4.70;99.90
19654;DHT22;9975;48.046;7.804;2023-02-05T20:13:04;4.70;99.90
19654;DHT22;9975;48.046;7.804;2023-02-05T20:15:29;4.80;99.90
19654;DHT22;9975;48.046;7.804;2023-02-05T20:17:55;4.60;99.90
19654;DHT22;9975;48.046;7.804;2023-02-05T20:20:22;4.70;99.90
19654;DHT22;9975;48.046;7.804;2023-02-05T20:22:47;4.60;99.90
19654;DHT22;9975;48.046;7.804;2023-02-05T20:27:40;4.70;99.90
19654;DHT22;9975;48.046;7.804;2023-02-05T20:30:07;4.80;99.90
19654;DHT22;9975;48.046;7.804;2023-02-05T20:32:52;4.90;99.90
19654;DHT22;9975;48.046;7.804;2023-02-05T20:35:19;4.80;99.90
19654;DHT22;9975;48.046;7.804;2023-02-05T20:40:11;4.70;99.90
19654;DHT22;9975;48.046;7.804;2023-02-05T20:42:37;4.80;99.90
19654;DHT22;9975;48.046;7.804;2023-02-05T20:49:54;4.80;99.90
19654;DHT22;9975;48.046;7.804;2023-02-05T20:54:46;4.90;99.90
19654;DHT22;9975;48.046;7.804;2023-02-05T20:59:38;4.70;99.90
19654;DHT22;9975;48.046;7.804;2023-02-05T21:02:04;4.60;99.90
19654;DHT22;9975;48.046;7.804;2023-02-05T21:04:30;4.60;99.90
19654;DHT22;9975;48.046;7.804;2023-02-05T21:06:55;4.60;99.90
19654;DHT22;9975;48.046;7.804;2023-02-05T21:09:22;4.60;99.90
19654;DHT22;9975;48.046;7.804;2023-02-05T21:11:48;4.70;99.90
19654;DHT22;9975;48.046;7.804;2023-02-05T21:14:15;4.40;99.90
19654;DHT22;9975;48.046;7.804;2023-02-05T21:16:41;4.60;99.90
19654;DHT22;9975;48.046;7.804;2023-02-05T21:19:07;4.60;99.90
19654;DHT22;9975;48.046;7.804;2023-02-05T21:21:35;4.60;99.90
19654;DHT22;9975;48.046;7.804;2023-02-05T21:24:06;4.60;99.90
19654;DHT22;9975;48.046;7.804;2023-02-05T21:26:38;4.60;99.90
19654;DHT22;9975;48.046;7.804;2023-02-05T21:29:10;4.50;99.90
19654;DHT22;9975;48.046;7.804;2023-02-05T21:31:41;4.60;99.90
19654;DHT22;9975;48.046;7.804;2023-02-05T21:34:18;4.60;99.90
19654;DHT22;9975;48.046;7.804;2023-02-05T21:36:46;4.50;99.90
19654;DHT22;9975;48.046;7.804;2023-02-05T21:39:13;4.50;99.90
19654;DHT22;9975;48.046;7.804;2023-02-05T21:41:42;4.60;99.90
19654;DHT22;9975;48.046;7.804;2023-02-05T21:44:10;4.50;99.90
19654;DHT22;9975;48.046;7.804;2023-02-05T21:49:02;4.40;99.90
19654;DHT22;9975;48.046;7.804;2023-02-05T21:51:30;4.50;99.90
19654;DHT22;9975;48.046;7.804;2023-02-05T21:54:00;4.60;99.90
19654;DHT22;9975;48.046;7.804;2023-02-05T21:56:29;4.50;99.90
19654;DHT22;9975;48.046;7.804;2023-02-05T22:01:30;4.40;99.90
19654;DHT22;9975;48.046;7.804;2023-02-05T22:03:58;4.40;99.90
19654;DHT22;9975;48.046;7.804;2023-02-05T22:06:26;4.50;99.90
19654;DHT22;9975;48.046;7.804;2023-02-05T22:08:53;4.50;99.90
19654;DHT22;9975;48.046;7.804;2023-02-05T22:11:21;4.50;99.90
19654;DHT22;9975;48.046;7.804;2023-02-05T22:13:48;4.60;99.90
19654;DHT22;9975;48.046;7.804;2023-02-05T22:18:43;4.70;99.90
19654;DHT22;9975;48.046;7.804;2023-02-05T22:21:17;4.70;99.90
19654;DHT22;9975;48.046;7.804;2023-02-05T22:23:45;4.70;99.90
19654;DHT22;9975;48.046;7.804;2023-02-05T22:26:14;4.70;99.90
19654;DHT22;9975;48.046;7.804;2023-02-05T22:28:40;4.70;99.90
19654;DHT22;9975;48.046;7.804;2023-02-05T22:31:08;4.70;99.90
19654;DHT22;9975;48.046;7.804;2023-02-05T22:33:35;4.70;99.90
19654;DHT22;9975;48.046;7.804;2023-02-05T22:36:02;4.70;99.90
19654;DHT22;9975;48.046;7.804;2023-02-05T22:38:33;4.60;99.90
19654;DHT22;9975;48.046;7.804;2023-02-05T22:40:59;4.60;99.90
19654;DHT22;9975;48.046;7.804;2023-02-05T22:43:28;4.60;99.90
19654;DHT22;9975;48.046;7.804;2023-02-05T22:45:53;4.60;99.90
19654;DHT22;9975;48.046;7.804;2023-02-05T22:48:19;4.60;99.90
19654;DHT22;9975;48.046;7.804;2023-02-05T22:50:45;4.60;99.90
19654;DHT22;9975;48.046;7.804;2023-02-05T22:53:12;4.60;99.90
19654;DHT22;9975;48.046;7.804;2023-02-05T22:55:38;4.60;99.90
19654;DHT22;9975;48.046;7.804;2023-02-05T22:58:07;4.70;99.90
19654;DHT22;9975;48.046;7.804;2023-02-05T23:00:33;4.70;99.90
19654;DHT22;9975;48.046;7.804;2023-02-05T23:02:59;4.70;99.90
19654;DHT22;9975;48.046;7.804;2023-02-05T23:05:29;4.60;99.90
19654;DHT22;9975;48.046;7.804;2023-02-05T23:07:57;4.60;99.90
19654;DHT22;9975;48.046;7.804;2023-02-05T23:10:22;4.50;99.90